Wednesday, November 14, 2018, 2:30 AM EST
Back to Local

KRKD, Rockland, Knox County Regional Airport

Location: Owls Head, ME, United States Lat: 44.067
Local Time: 2:30 AM EST ( 7:30 GMT) Lon: -69.1
Time Zone: US/Eastern Elev: 55 ft

Show me the last for .
Show Decoded

2018-11-14 01:56 METAR KRKD 140656Z AUTO 28018G27KT 10SM CLR M01/M09 A2985 RMK AO2 PK WND
                 28038/0627 SLP110 T10111089 FZRANO =
2018-11-14 00:56 METAR KRKD 140556Z AUTO 27023G29KT 10SM FEW041 01/M06 A2980 RMK AO2 PK WND
                 28029/0554 SLP094 T00111056 10044 20011 51028 FZRANO =
2018-11-13 23:56 METAR KRKD 140456Z AUTO 29015G26KT 10SM CLR 03/M03 A2979 RMK AO2 PK WND
                 27026/0452 SLP089 T00281028 400940006 =
2018-11-13 22:56 METAR KRKD 140356Z AUTO 27013KT 10SM FEW045 03/01 A2975 RMK AO2 SLP076 T00330006
                 =
2018-11-13 21:56 METAR KRKD 140256Z AUTO 28011KT 10SM CLR 03/02 A2972 RMK AO2 SLP066 T00330017
                 51027 =
2018-11-13 20:56 METAR KRKD 140156Z AUTO 29007G14KT 10SM BKN110 03/02 A2971 RMK AO2 SLP062
                 T00330017 =
2018-11-13 19:56 METAR KRKD 140056Z AUTO 30011G18KT 10SM OVC041 04/02 A2968 RMK AO2 SLP052
                 T00390022 =
2018-11-13 18:56 METAR KRKD 132356Z AUTO 30008G15KT 10SM SCT006 OVC033 04/03 A2964 RMK AO2
                 RAB22E48 SLP039 P0000 60048 T00390033 10094 20039 53006 =
2018-11-13 18:37 METAR KRKD 132337Z AUTO 31009G21KT 4SM -RA BR BKN006 OVC016 04/03 A2963 RMK AO2
                 RAB22 CIG 004V008 P0000 =
2018-11-13 18:19 METAR KRKD 132319Z AUTO 29014G17KT 4SM BR SCT004 OVC016 06/05 A2963 RMK AO2
                 PRESRR =
2018-11-13 17:56 METAR KRKD 132256Z AUTO 31009G16KT 8SM OVC004 05/05 A2958 RMK AO2 RAB39E55
                 SLP019 P0000 T00500050 =
2018-11-13 17:38 METAR KRKD 132238Z AUTO 29016G20KT 5SM BR BKN004 BKN009 OVC013 08/07 A2958 RMK
                 AO2 =
2018-11-13 17:29 METAR KRKD 132229Z AUTO 30007KT 9SM FEW006 OVC013 09/08 A2958 RMK AO2 =
2018-11-13 16:56 METAR KRKD 132156Z AUTO 32006KT 10SM SCT005 BKN009 OVC019 09/09 A2957 RMK AO2
                 RAE48 CIG 007V011 SLP015 P0002 T00890089 =
2018-11-13 16:42 METAR KRKD 132142Z AUTO 01008G14KT 6SM -RA BR BKN005 OVC019 09/09 A2956 RMK AO2
                 CIG 003V009 P0001 =
2018-11-13 16:26 METAR KRKD 132126Z AUTO 02009G15KT 4SM -RA BR OVC003 09/09 A2956 RMK AO2 CIG
                 003V008 PRESFR P0001 =
2018-11-13 16:14 METAR KRKD 132114Z AUTO 01007KT 330V060 2 1/2SM -RA BR OVC003 09/09 A2959 RMK
                 AO2 P0001 =
2018-11-13 15:56 METAR KRKD 132056Z AUTO 02008KT 340V040 1 1/2SM -RA BR OVC003 09/09 A2962 RMK
                 AO2 SLP032 P0012 60046 T00890089 56048 =
2018-11-13 15:51 METAR KRKD 132051Z AUTO 01007KT 330V040 1 1/2SM -RA BR OVC003 09/09 A2963 RMK
                 AO2 P0011 =
2018-11-13 15:18 METAR KRKD 132018Z AUTO 03007KT 1 1/2SM RA BR BKN005 OVC011 09/09 A2965 RMK AO2
                 VIS 1 1/4V3 CIG 003V008 P0006 =
2018-11-13 14:56 METAR KRKD 131956Z AUTO 06009KT 1 1/2SM -RA BR OVC003 09/09 A2968 RMK AO2 PRESFR
                 SLP053 P0016 T00940089 =
2018-11-13 14:41 METAR KRKD 131941Z AUTO 08008KT 1 3/4SM RA BR OVC003 09/09 A2971 RMK AO2 VIS 1
                 1/2V2 1/2 PRESFR P0013 =
2018-11-13 14:32 METAR KRKD 131932Z AUTO 09009KT 1 3/4SM RA BR OVC005 09/09 A2972 RMK AO2 PRESFR
                 P0010 =
2018-11-13 13:56 METAR KRKD 131856Z AUTO 13011G16KT 4SM RA BR OVC005 09/09 A2976 RMK AO2 PRESFR
                 SLP081 P0018 T00940089 =
2018-11-13 12:56 METAR KRKD 131756Z AUTO 15015G20KT 3SM -RA BR OVC005 09/09 A2984 RMK AO2 SLP107
                 P0013 60065 T00940089 10094 20056 56078 =
2018-11-13 12:43 METAR KRKD 131743Z AUTO 15017G23KT 3SM -RA BR OVC005 09/09 A2985 RMK AO2 P0011 =
2018-11-13 12:18 METAR KRKD 131718Z AUTO 16013G24KT 2 1/2SM RA BR OVC005 09/09 A2987 RMK AO2
                 P0006 =
2018-11-13 11:56 METAR KRKD 131656Z AUTO 16015G27KT 4SM RA BR OVC007 09/09 A2990 RMK AO2 PK WND
                 15027/1647 CIG 005V010 SLP127 P0013 T00940089 =
2018-11-13 09:56 METAR KRKD 131456Z AUTO 13014G20KT 6SM RA BR OVC009 07/07 A3007 RMK AO2 CIG
                 006V013 PRESFR SLP185 P0011 60024 T00720067 58050 =
2018-11-13 08:56 METAR KRKD 131356Z AUTO 13014G18KT 7SM RA BKN009 BKN014 OVC022 07/06 A3014 RMK
                 AO2 SLP207 P0008 T00670056 =
2018-11-13 08:52 METAR KRKD 131352Z AUTO 13012KT 7SM RA SCT009 BKN014 OVC020 06/06 A3014 RMK AO2
                 P0008 =
2018-11-13 07:56 METAR KRKD 131256Z AUTO 14009KT 10SM -RA BKN016 OVC028 06/04 A3018 RMK AO2
                 SLP221 P0005 T00560039 =
2018-11-13 06:56 METAR KRKD 131156Z AUTO 15012G18KT 8SM -RA FEW008 BKN020 OVC025 06/04 A3022 RMK
                 AO2 SLP235 P0004 60021 70021 T00560039 10056 20011 58030 =
2018-11-13 06:18 METAR KRKD 131118Z AUTO 07005KT 6SM -RA BR SCT008 OVC016 04/03 A3025 RMK AO2
                 P0001 =
2018-11-13 05:56 METAR KRKD 131056Z AUTO 06003KT 6SM -RA BR FEW005 BKN010 OVC016 04/03 A3026 RMK
                 AO2 CIG 007V014 SLP248 P0003 T00390033 =
2018-11-13 05:46 METAR KRKD 131046Z AUTO 05003KT 7SM -RA FEW005 BKN012 OVC020 04/03 A3027 RMK AO2
                 P0003 =
2018-11-13 04:56 METAR KRKD 130956Z AUTO 00000KT 5SM -RA BR OVC021 03/03 A3029 RMK AO2 SLP259
                 P0007 T00330028 =
2018-11-13 03:56 METAR KRKD 130856Z AUTO 00000KT 9SM -RA OVC025 03/03 A3031 RMK AO2 SLP266 P0003
                 60007 T00330028 58014 =
2018-11-13 02:56 METAR KRKD 130756Z AUTO 27006KT 10SM -RA BKN023 OVC031 04/02 A3033 RMK AO2
                 SLP272 P0004 T00390022 =
2018-11-13 02:49 METAR KRKD 130749Z AUTO 30003KT 10SM RA BKN026 OVC031 03/03 A3034 RMK AO2 P0003
                 =

Support USWX by starting your Amazon purchase here.